Αρχική σελίδα
METAR-TAF:

METAR-TAF

Αεροδρόμια :

Τεχεράνη, Ιράν

γεωγραφικό πλάτος: 35-41N, γεωγραφικό μήκος: 051-21E, υψόμετρο: 1204 μ

Παρών καιρός

Η αναφορά έγινε 32 λεπτά πριν, στις 02:30 UTC
Ήπιος άνεμος
Θερμοκρασία 26°C
Υγρασία 28%
Πίεση 1012 hPa
Ορατότητα 10 χλμ και άνω
Δεν υπάρχουν νέφη με βάση κάτω από τα 1500 μ. και δεν υπάρχουν νέφη σωρειτομελανίτες.

METAR: OIII 240230Z 00000KT CAVOK 26/06 Q1011 A2987

Χρόνος: 07:32 (03:02 UTC)

Πρόγνωση Καιρού

Η αναφορά έγινε 4 ώρες και 2 λεπτά πριν, στις 23:00 UTC
Η πρόγνωση ισχύει από τις 24 στις 00 UTC έως τις 25 στις 06 UTC
Άνεμος 8 kt από Δ/ΝΔ
Ορατότητα: 8000 μ
Λίγα νέφη σε ύψος 4500 πόδια

TAF: OIII 232300Z 2400/2506 24004MPS 8000 FEW045

Μετεωρολογικές αναφορές και προγνώσεις για περισσότερα από 4000 αεροδρόμια (δελτία METAR και TAF).

Οι διαθέσιμοι σταθμοί απεικονίζονται στο χάρτη με κίτρινες και κόκκινες κουκκίδες.

Μετακινήστε το ποντίκι πάνω από τις κουκκίδες για να δείτε το όνομα του σταθμού.

Στη συνέχεια, κάντε κλικ για να δείτε τις μετεωρολογικές αναφορές και τις προγνώσεις καιρού.

Για να αλλάξετε το χάρτη: κάντε κλικ στα πράσινα κουμπιά με τον μαύρο σταυρό για να ζουμάρετε, στο πράσινο κουμπί με την παύλα για να αφαιρέσετε το ζουμ ή στα πράσινα βέλη για να αντιπαραβάλλετε χάρτες.


METAR-TAF: